createdAt,value
2023-02-27T00:00:21.960Z,60.87
2023-02-27T00:02:51.386Z,60.58
2023-02-27T00:05:19.668Z,61.32
2023-02-27T00:07:46.161Z,60.88
2023-02-27T00:10:22.071Z,60.79
2023-02-27T00:12:51.629Z,60.85
2023-02-27T00:15:20.577Z,61.37
2023-02-27T00:17:47.202Z,61.00
2023-02-27T00:20:17.257Z,61.09
2023-02-27T00:22:44.707Z,61.84
2023-02-27T00:25:12.964Z,61.50
2023-02-27T00:27:40.241Z,61.42
2023-02-27T00:30:13.314Z,61.20
2023-02-27T00:32:40.600Z,60.89
2023-02-27T00:35:11.338Z,60.36
2023-02-27T00:37:41.428Z,60.57
2023-02-27T00:40:08.978Z,60.67
2023-02-27T00:42:35.778Z,60.34
2023-02-27T00:45:03.997Z,60.65
2023-02-27T00:47:30.981Z,60.40
2023-02-27T00:49:57.544Z,60.52
2023-02-27T00:52:24.190Z,61.41
2023-02-27T00:54:50.697Z,61.24
2023-02-27T00:57:17.490Z,61.26
2023-02-27T00:59:49.347Z,61.91
2023-02-27T01:02:15.943Z,62.66
2023-02-27T01:04:42.892Z,62.81
2023-02-27T01:07:09.905Z,62.64
2023-02-27T01:09:36.631Z,62.56
2023-02-27T01:12:03.326Z,62.59
2023-02-27T01:14:30.164Z,62.34
2023-02-27T01:16:58.026Z,62.53
2023-02-27T01:19:25.651Z,62.54
2023-02-27T01:21:52.816Z,62.54
2023-02-27T01:24:19.896Z,62.36
2023-02-27T01:26:47.496Z,63.04
2023-02-27T01:29:15.746Z,63.07
2023-02-27T01:31:42.443Z,62.90
2023-02-27T01:34:09.155Z,63.57
2023-02-27T01:36:36.040Z,63.47
2023-02-27T01:39:02.587Z,63.40
2023-02-27T01:41:29.724Z,63.56
2023-02-27T01:44:03.735Z,63.10
2023-02-27T01:46:32.637Z,62.64
2023-02-27T01:49:24.492Z,63.05
2023-02-27T01:52:02.906Z,62.52
2023-02-27T01:54:44.935Z,62.02
2023-02-27T01:57:11.578Z,62.25
2023-02-27T01:59:42.269Z,62.18
2023-02-27T02:02:19.477Z,62.63
2023-02-27T02:04:50.220Z,62.61
2023-02-27T02:07:19.649Z,62.11
2023-02-27T02:09:57.154Z,62.01
2023-02-27T02:12:35.838Z,62.20
2023-02-27T02:15:04.032Z,61.95
2023-02-27T02:18:00.609Z,62.45
2023-02-27T02:21:00.842Z,61.75
2023-02-27T02:24:08.793Z,62.12
2023-02-27T02:26:51.190Z,63.02
2023-02-27T02:29:58.249Z,64.08
2023-02-27T02:32:45.934Z,63.32
2023-02-27T02:36:04.553Z,63.86
2023-02-27T02:38:44.836Z,63.09
2023-02-27T02:41:43.526Z,63.85
2023-02-27T02:44:40.702Z,64.08
2023-02-27T02:47:58.186Z,63.35
2023-02-27T02:50:57.376Z,63.28
2023-02-27T02:53:50.984Z,63.60
2023-02-27T02:56:35.171Z,63.14
2023-02-27T02:59:44.177Z,63.32
2023-02-27T03:02:17.992Z,63.31
2023-02-27T03:05:00.297Z,62.93
2023-02-27T03:07:57.670Z,63.78
2023-02-27T03:10:45.150Z,63.27
2023-02-27T03:13:29.469Z,63.51
2023-02-27T03:16:11.467Z,64.70
2023-02-27T03:18:49.672Z,64.75
2023-02-27T03:21:26.288Z,64.72
2023-02-27T03:24:00.181Z,64.63
2023-02-27T03:26:35.185Z,64.72
2023-02-27T03:29:08.702Z,64.45
2023-02-27T03:31:56.553Z,64.74
2023-02-27T03:34:33.050Z,64.53
2023-02-27T03:37:35.828Z,64.45
2023-02-27T03:40:27.312Z,63.68
2023-02-27T03:43:22.517Z,63.51
2023-02-27T03:46:04.498Z,63.56
2023-02-27T03:48:31.315Z,64.03
2023-02-27T03:50:59.512Z,63.90
2023-02-27T03:53:41.250Z,64.41
2023-02-27T03:56:12.194Z,64.33
2023-02-27T03:58:38.731Z,64.53
2023-02-27T04:01:05.741Z,64.01
2023-02-27T04:03:39.896Z,64.00
2023-02-27T04:06:27.076Z,64.10
2023-02-27T04:09:16.857Z,64.70
2023-02-27T04:11:58.708Z,64.36
2023-02-27T04:14:51.659Z,63.47
2023-02-27T04:17:27.005Z,63.43
2023-02-27T04:20:22.146Z,64.13
2023-02-27T04:23:00.738Z,63.78
2023-02-27T04:26:20.178Z,63.04
2023-02-27T04:29:11.421Z,63.58
2023-02-27T04:31:57.407Z,62.63
2023-02-27T04:34:40.976Z,62.90
2023-02-27T04:37:17.307Z,62.59
2023-02-27T04:39:55.207Z,62.85
2023-02-27T04:42:29.293Z,63.08
2023-02-27T04:45:03.194Z,63.16
2023-02-27T04:47:41.759Z,63.37
2023-02-27T04:50:19.536Z,63.36
2023-02-27T04:53:18.006Z,62.79
2023-02-27T04:55:54.066Z,62.99
2023-02-27T04:58:33.349Z,62.64
2023-02-27T05:01:07.868Z,62.70
2023-02-27T05:03:42.484Z,63.17
2023-02-27T05:06:11.283Z,63.25
2023-02-27T05:09:03.179Z,64.02
2023-02-27T05:12:00.008Z,63.77
2023-02-27T05:14:45.390Z,63.67
2023-02-27T05:17:25.672Z,63.35
2023-02-27T05:19:52.772Z,63.08
2023-02-27T05:22:46.970Z,63.25
2023-02-27T05:25:31.681Z,64.20
2023-02-27T05:28:27.642Z,63.76
2023-02-27T05:31:15.794Z,63.39
2023-02-27T05:34:10.204Z,63.69
2023-02-27T05:36:47.593Z,63.15
2023-02-27T05:39:20.351Z,63.26
2023-02-27T05:42:07.266Z,62.69
2023-02-27T05:44:40.372Z,62.45
2023-02-27T05:47:16.483Z,62.81
2023-02-27T05:49:53.945Z,62.20
2023-02-27T05:52:26.622Z,62.57
2023-02-27T05:55:18.962Z,63.08
2023-02-27T05:57:56.256Z,62.54
2023-02-27T06:00:57.610Z,62.46
2023-02-27T06:03:26.979Z,62.60
2023-02-27T06:05:58.999Z,62.50
2023-02-27T06:08:25.737Z,63.82
2023-02-27T06:10:52.395Z,63.25
2023-02-27T06:13:19.083Z,64.17
2023-02-27T06:15:45.820Z,64.04
2023-02-27T06:18:14.867Z,63.14
2023-02-27T06:20:43.349Z,63.18
2023-02-27T06:23:10.802Z,62.88
2023-02-27T06:25:37.945Z,62.27
2023-02-27T06:28:05.480Z,62.55
2023-02-27T06:30:32.185Z,62.44
2023-02-27T06:33:01.700Z,62.74
2023-02-27T06:35:29.387Z,62.86
2023-02-27T06:37:59.211Z,63.53
2023-02-27T06:40:26.247Z,63.93
2023-02-27T06:42:52.728Z,64.59
2023-02-27T06:45:19.267Z,64.13
2023-02-27T06:47:45.772Z,63.27
2023-02-27T06:50:14.423Z,63.51
2023-02-27T06:52:41.191Z,63.42
2023-02-27T06:55:09.312Z,63.23
2023-02-27T06:57:36.186Z,63.60
2023-02-27T07:00:06.900Z,64.43
2023-02-27T07:02:33.388Z,63.76
2023-02-27T07:04:59.924Z,63.71
2023-02-27T07:07:34.247Z,63.67
2023-02-27T07:10:06.563Z,63.65
2023-02-27T07:12:33.123Z,63.45
2023-02-27T07:14:59.997Z,63.16
2023-02-27T07:17:26.491Z,62.65
2023-02-27T07:19:59.791Z,63.07
2023-02-27T07:22:26.350Z,63.04
2023-02-27T07:24:52.777Z,63.05
2023-02-27T07:27:19.266Z,63.06
2023-02-27T07:29:46.263Z,63.59
2023-02-27T07:32:13.055Z,64.08
2023-02-27T07:34:39.539Z,64.84
2023-02-27T07:37:06.066Z,64.38
2023-02-27T07:39:36.731Z,64.69
2023-02-27T07:42:03.443Z,64.41
2023-02-27T07:44:31.636Z,63.72
2023-02-27T07:46:59.481Z,64.32
2023-02-27T07:49:25.950Z,64.39
2023-02-27T07:51:52.424Z,64.00
2023-02-27T07:54:19.044Z,64.30
2023-02-27T07:56:49.747Z,64.06
2023-02-27T07:59:16.185Z,64.28
2023-02-27T08:01:42.694Z,63.71
2023-02-27T08:04:09.653Z,63.30
2023-02-27T08:06:39.123Z,63.61
2023-02-27T08:09:05.954Z,63.50
2023-02-27T08:11:32.553Z,62.85
2023-02-27T08:14:01.069Z,63.29
2023-02-27T08:16:29.073Z,63.00
2023-02-27T08:18:56.684Z,63.07
2023-02-27T08:21:37.654Z,62.39
2023-02-27T08:24:04.200Z,62.50
2023-02-27T08:26:33.523Z,62.11
2023-02-27T08:29:00.070Z,62.14
2023-02-27T08:31:26.743Z,62.11
2023-02-27T08:34:01.263Z,61.27
2023-02-27T08:36:41.481Z,61.37
2023-02-27T08:39:09.346Z,61.06
2023-02-27T08:41:36.544Z,61.40
2023-02-27T08:44:03.632Z,61.25
2023-02-27T08:46:30.526Z,60.21
2023-02-27T08:48:57.170Z,60.48
2023-02-27T08:51:23.686Z,60.23
2023-02-27T08:53:50.271Z,60.06
2023-02-27T08:56:16.748Z,59.09
2023-02-27T08:58:43.271Z,58.68
2023-02-27T09:01:09.790Z,58.38
2023-02-27T09:03:37.294Z,57.59
2023-02-27T09:06:03.970Z,58.04
2023-02-27T09:08:30.539Z,57.81
2023-02-27T09:10:57.908Z,57.72
2023-02-27T09:13:26.832Z,57.53
2023-02-27T09:15:53.693Z,58.11
2023-02-27T09:18:20.614Z,57.92
2023-02-27T09:20:51.305Z,57.72
2023-02-27T09:23:18.383Z,57.73
2023-02-27T09:25:47.263Z,57.86
2023-02-27T09:28:13.850Z,56.85
2023-02-27T09:30:40.488Z,57.29
2023-02-27T09:33:15.805Z,56.75
2023-02-27T09:35:42.566Z,56.46
2023-02-27T09:38:18.959Z,56.03
2023-02-27T09:40:50.400Z,56.43
2023-02-27T09:43:48.292Z,54.68
2023-02-27T09:46:27.297Z,55.32
2023-02-27T09:48:59.937Z,55.17
2023-02-27T09:51:29.281Z,55.36
2023-02-27T09:54:01.107Z,54.83
2023-02-27T09:56:54.156Z,53.29
2023-02-27T09:59:52.696Z,54.28
2023-02-27T10:02:47.131Z,54.25
2023-02-27T10:05:31.154Z,54.29
2023-02-27T10:08:52.445Z,53.43
2023-02-27T10:11:44.017Z,53.72
2023-02-27T10:14:44.198Z,53.64
2023-02-27T10:17:31.295Z,53.23
2023-02-27T10:20:02.199Z,53.75
2023-02-27T10:22:37.736Z,52.70
2023-02-27T10:25:29.721Z,52.93
2023-02-27T10:28:11.033Z,52.84
2023-02-27T10:30:37.733Z,52.50
2023-02-27T10:33:22.074Z,52.22
2023-02-27T10:35:50.652Z,51.76
2023-02-27T10:38:31.990Z,51.21
2023-02-27T10:41:01.145Z,51.05
2023-02-27T10:43:27.693Z,51.24
2023-02-27T10:45:54.673Z,50.80
2023-02-27T10:48:22.976Z,50.71
2023-02-27T10:50:53.814Z,49.31
2023-02-27T10:53:28.083Z,48.11
2023-02-27T10:56:07.981Z,48.73
2023-02-27T10:58:36.931Z,49.17
2023-02-27T11:01:11.186Z,49.38
2023-02-27T11:03:43.386Z,49.17
2023-02-27T11:06:25.081Z,49.54
2023-02-27T11:09:21.755Z,49.31
2023-02-27T11:11:52.608Z,50.12
2023-02-27T11:14:19.030Z,49.43
2023-02-27T11:16:52.092Z,49.34
2023-02-27T11:19:39.379Z,48.50
2023-02-27T11:22:20.211Z,49.06
2023-02-27T11:24:48.185Z,48.99
2023-02-27T11:27:29.496Z,48.06
2023-02-27T11:30:26.966Z,49.20
2023-02-27T11:33:00.790Z,49.03
2023-02-27T11:35:33.007Z,48.39
2023-02-27T11:38:07.716Z,47.96
2023-02-27T11:40:40.823Z,46.68
2023-02-27T11:43:41.653Z,47.62
2023-02-27T11:46:45.100Z,48.03
2023-02-27T11:49:41.823Z,47.89
2023-02-27T11:52:23.782Z,48.38
2023-02-27T11:55:00.488Z,47.74
2023-02-27T11:57:34.951Z,45.52
2023-02-27T12:00:16.331Z,47.06
2023-02-27T12:03:00.629Z,47.25
2023-02-27T12:05:51.554Z,45.50
2023-02-27T12:08:53.852Z,46.64
2023-02-27T12:11:29.680Z,47.28
2023-02-27T12:14:11.103Z,46.61
2023-02-27T12:16:43.102Z,46.30
2023-02-27T12:19:26.881Z,46.16
2023-02-27T12:22:03.247Z,46.14
2023-02-27T12:24:47.196Z,46.99
2023-02-27T12:27:26.249Z,45.88
2023-02-27T12:30:05.275Z,46.36
2023-02-27T12:33:08.066Z,46.66
2023-02-27T12:35:34.539Z,45.63
2023-02-27T12:38:02.744Z,46.05
2023-02-27T12:40:59.365Z,45.12
2023-02-27T12:44:02.573Z,45.54
2023-02-27T12:47:04.657Z,45.65
2023-02-27T12:49:46.904Z,45.43
2023-02-27T12:52:49.567Z,45.31
2023-02-27T12:55:22.857Z,46.04
2023-02-27T12:58:35.854Z,45.41
2023-02-27T13:01:26.440Z,45.00
2023-02-27T13:04:03.384Z,46.55
2023-02-27T13:06:46.183Z,45.76
2023-02-27T13:09:38.233Z,44.54
2023-02-27T13:12:07.382Z,45.81
2023-02-27T13:14:49.673Z,45.07
2023-02-27T13:17:41.605Z,46.05
2023-02-27T13:21:12.827Z,43.92
2023-02-27T13:23:58.448Z,46.13
2023-02-27T13:26:43.940Z,45.52
2023-02-27T13:29:17.057Z,44.67
2023-02-27T13:31:57.757Z,44.34
2023-02-27T13:34:27.638Z,45.11
2023-02-27T13:37:03.454Z,44.73
2023-02-27T13:39:51.741Z,43.69
2023-02-27T13:42:27.094Z,44.82
2023-02-27T13:45:46.379Z,44.10
2023-02-27T13:48:43.751Z,45.22
2023-02-27T13:51:35.778Z,44.04
2023-02-27T13:54:14.698Z,43.71
2023-02-27T13:57:06.758Z,45.05
2023-02-27T13:59:37.358Z,44.63
2023-02-27T14:02:27.052Z,45.12
2023-02-27T14:05:01.611Z,44.27
2023-02-27T14:07:48.573Z,43.51
2023-02-27T14:10:24.744Z,43.81
2023-02-27T14:12:51.760Z,43.78
2023-02-27T14:15:18.146Z,44.30
2023-02-27T14:17:47.574Z,44.31
2023-02-27T14:20:16.872Z,44.30
2023-02-27T14:23:15.173Z,42.15
2023-02-27T14:25:54.130Z,44.03
2023-02-27T14:28:36.067Z,43.58
2023-02-27T14:31:08.662Z,44.62
2023-02-27T14:33:48.134Z,44.76
2023-02-27T14:36:27.147Z,44.30
2023-02-27T14:38:57.479Z,44.50
2023-02-27T14:41:38.150Z,43.81
2023-02-27T14:44:05.252Z,44.23
2023-02-27T14:46:41.138Z,44.20
2023-02-27T14:49:30.390Z,43.76
2023-02-27T14:51:57.665Z,44.00
2023-02-27T14:54:27.865Z,44.46
2023-02-27T14:56:59.825Z,43.85
2023-02-27T14:59:48.010Z,44.28
2023-02-27T15:02:30.551Z,44.10
2023-02-27T15:05:03.324Z,43.74
2023-02-27T15:07:34.369Z,43.96
2023-02-27T15:10:06.069Z,44.29
2023-02-27T15:12:39.341Z,43.51
2023-02-27T15:15:09.758Z,44.04
2023-02-27T15:17:42.881Z,43.43
2023-02-27T15:20:35.779Z,43.58
2023-02-27T15:23:26.131Z,43.32
2023-02-27T15:25:59.146Z,42.85
2023-02-27T15:28:34.209Z,42.86
2023-02-27T15:31:00.805Z,43.00
2023-02-27T15:33:33.278Z,42.49
2023-02-27T15:36:01.532Z,43.10
2023-02-27T15:38:30.954Z,43.35
2023-02-27T15:41:01.299Z,42.08
2023-02-27T15:43:29.826Z,42.45
2023-02-27T15:45:58.210Z,42.48
2023-02-27T15:48:25.786Z,42.51
2023-02-27T15:51:02.234Z,42.65
2023-02-27T15:53:33.808Z,42.74
2023-02-27T15:56:14.692Z,42.30
2023-02-27T15:58:54.377Z,42.25
2023-02-27T16:01:29.690Z,42.04
2023-02-27T16:04:13.685Z,42.45
2023-02-27T16:06:49.446Z,42.84
2023-02-27T16:09:28.726Z,43.02
2023-02-27T16:12:18.915Z,42.95
2023-02-27T16:14:45.886Z,43.72
2023-02-27T16:17:29.564Z,42.98
2023-02-27T16:20:01.783Z,43.63
2023-02-27T16:22:30.392Z,43.68
2023-02-27T16:25:19.257Z,43.75
2023-02-27T16:27:50.408Z,43.40
2023-02-27T16:30:16.964Z,43.92
2023-02-27T16:32:46.604Z,43.92
2023-02-27T16:35:23.318Z,43.77
2023-02-27T16:37:50.768Z,44.37
2023-02-27T16:40:24.424Z,43.72
2023-02-27T16:42:52.834Z,44.36
2023-02-27T16:45:27.090Z,43.93
2023-02-27T16:47:57.766Z,44.24
2023-02-27T16:50:34.006Z,44.47
2023-02-27T16:53:01.066Z,44.63
2023-02-27T16:55:27.788Z,44.45
2023-02-27T16:57:54.356Z,44.58
2023-02-27T17:00:22.613Z,44.59
2023-02-27T17:02:50.996Z,44.39
2023-02-27T17:05:18.308Z,44.12
2023-02-27T17:07:45.877Z,44.50
2023-02-27T17:10:25.405Z,43.52
2023-02-27T17:12:53.129Z,44.73
2023-02-27T17:15:20.938Z,44.83
2023-02-27T17:17:47.473Z,45.53
2023-02-27T17:20:14.525Z,45.11
2023-02-27T17:22:44.822Z,45.33
2023-02-27T17:25:13.105Z,45.78
2023-02-27T17:27:43.468Z,45.65
2023-02-27T17:30:11.398Z,45.47
2023-02-27T17:32:37.925Z,45.03
2023-02-27T17:35:05.085Z,45.69
2023-02-27T17:37:31.658Z,45.76
2023-02-27T17:39:58.217Z,45.85
2023-02-27T17:42:25.760Z,46.67
2023-02-27T17:44:52.690Z,46.97
2023-02-27T17:47:19.496Z,46.64
2023-02-27T17:49:46.092Z,46.89
2023-02-27T17:52:12.623Z,46.82
2023-02-27T17:54:39.442Z,46.86
2023-02-27T17:57:06.733Z,46.99
2023-02-27T17:59:33.562Z,47.45
2023-02-27T18:02:00.109Z,47.55
2023-02-27T18:04:26.728Z,47.78
2023-02-27T18:06:53.655Z,48.16
2023-02-27T18:09:20.277Z,48.44
2023-02-27T18:11:46.845Z,48.85
2023-02-27T18:14:13.777Z,48.41
2023-02-27T18:16:41.246Z,49.02
2023-02-27T18:19:07.903Z,49.06
2023-02-27T18:21:34.949Z,48.92
2023-02-27T18:24:01.534Z,48.97
2023-02-27T18:26:31.718Z,48.59
2023-02-27T18:29:08.076Z,49.28
2023-02-27T18:31:40.118Z,49.86
2023-02-27T18:34:07.857Z,50.51
2023-02-27T18:36:35.905Z,51.16
2023-02-27T18:39:05.026Z,51.47
2023-02-27T18:41:32.425Z,52.23
2023-02-27T18:43:59.141Z,52.55
2023-02-27T18:46:26.372Z,52.90
2023-02-27T18:48:55.331Z,53.42
2023-02-27T18:51:21.954Z,53.38
2023-02-27T18:53:50.094Z,52.44
2023-02-27T18:56:20.951Z,52.77
2023-02-27T18:58:47.507Z,52.51
2023-02-27T19:01:25.659Z,52.25
2023-02-27T19:03:55.850Z,52.00
2023-02-27T19:06:22.345Z,51.56
2023-02-27T19:08:48.805Z,51.77
2023-02-27T19:11:33.218Z,52.42
2023-02-27T19:14:08.285Z,51.71
2023-02-27T19:16:35.740Z,52.04
2023-02-27T19:19:04.789Z,52.03
2023-02-27T19:21:34.947Z,52.28
2023-02-27T19:24:02.592Z,52.07
2023-02-27T19:26:29.823Z,52.88
2023-02-27T19:28:56.450Z,52.84
2023-02-27T19:31:24.479Z,53.19
2023-02-27T19:33:51.730Z,52.66
2023-02-27T19:36:21.739Z,52.64
2023-02-27T19:38:49.702Z,52.92
2023-02-27T19:41:18.053Z,52.99
2023-02-27T19:43:46.274Z,53.05
2023-02-27T19:46:17.042Z,53.44
2023-02-27T19:48:45.147Z,53.36
2023-02-27T19:51:14.353Z,52.98
2023-02-27T19:53:43.404Z,52.96
2023-02-27T19:56:23.763Z,52.87
2023-02-27T19:58:51.746Z,53.07
2023-02-27T20:01:36.217Z,53.28
2023-02-27T20:04:03.385Z,53.63
2023-02-27T20:06:33.617Z,53.78
2023-02-27T20:09:00.660Z,53.69
2023-02-27T20:11:32.496Z,53.90
2023-02-27T20:13:59.709Z,54.14
2023-02-27T20:16:28.777Z,54.32
2023-02-27T20:18:56.166Z,54.33
2023-02-27T20:21:24.746Z,54.27
2023-02-27T20:23:52.844Z,54.68
2023-02-27T20:26:35.421Z,55.26
2023-02-27T20:29:10.450Z,55.45
2023-02-27T20:31:39.165Z,55.79
2023-02-27T20:34:09.514Z,55.67
2023-02-27T20:36:37.729Z,55.72
2023-02-27T20:39:06.303Z,55.48
2023-02-27T20:41:34.577Z,56.39
2023-02-27T20:44:01.370Z,56.24
2023-02-27T20:46:30.252Z,56.20
2023-02-27T20:49:02.274Z,56.44
2023-02-27T20:51:35.878Z,56.96
2023-02-27T20:54:06.692Z,56.96
2023-02-27T20:56:40.475Z,56.90
2023-02-27T20:59:12.099Z,56.78
2023-02-27T21:01:38.954Z,57.21
2023-02-27T21:04:06.622Z,56.93
2023-02-27T21:06:34.746Z,57.38
2023-02-27T21:09:06.255Z,56.96
2023-02-27T21:11:33.553Z,57.20
2023-02-27T21:14:06.476Z,57.25
2023-02-27T21:16:33.021Z,57.48
2023-02-27T21:18:59.522Z,57.25
2023-02-27T21:21:34.754Z,56.64
2023-02-27T21:24:01.774Z,56.94
2023-02-27T21:26:39.182Z,57.48
2023-02-27T21:29:10.192Z,57.99
2023-02-27T21:31:39.274Z,57.93
2023-02-27T21:34:11.745Z,57.68
2023-02-27T21:36:50.960Z,57.56
2023-02-27T21:39:25.740Z,58.08
2023-02-27T21:41:53.164Z,58.23
2023-02-27T21:44:25.055Z,57.55
2023-02-27T21:46:53.706Z,58.37
2023-02-27T21:49:27.941Z,58.37
2023-02-27T21:51:55.536Z,58.27
2023-02-27T21:54:23.203Z,59.11
2023-02-27T21:56:50.245Z,59.16
2023-02-27T21:59:19.574Z,58.99
2023-02-27T22:01:48.131Z,58.99
2023-02-27T22:04:17.462Z,59.32
2023-02-27T22:06:44.538Z,59.58
2023-02-27T22:09:11.055Z,59.10
2023-02-27T22:11:37.643Z,58.44
2023-02-27T22:14:06.035Z,59.10
2023-02-27T22:16:33.915Z,58.93
2023-02-27T22:19:08.551Z,58.18
2023-02-27T22:21:36.884Z,58.40
2023-02-27T22:24:04.218Z,58.99
2023-02-27T22:26:34.261Z,59.06
2023-02-27T22:29:01.105Z,59.41
2023-02-27T22:31:32.341Z,59.65
2023-02-27T22:34:09.921Z,59.28
2023-02-27T22:36:37.002Z,59.59
2023-02-27T22:39:05.950Z,60.29
2023-02-27T22:41:36.789Z,60.78
2023-02-27T22:44:04.251Z,60.93
2023-02-27T22:46:37.180Z,60.26
2023-02-27T22:49:17.871Z,60.40
2023-02-27T22:51:45.215Z,60.38
2023-02-27T22:54:14.365Z,60.42
2023-02-27T22:56:41.782Z,61.01
2023-02-27T22:59:08.681Z,61.50
2023-02-27T23:01:37.253Z,61.39
2023-02-27T23:04:08.666Z,61.34
2023-02-27T23:06:39.945Z,61.33
2023-02-27T23:09:20.806Z,61.16
2023-02-27T23:11:47.622Z,61.29
2023-02-27T23:14:14.899Z,61.25
2023-02-27T23:16:45.364Z,61.44
2023-02-27T23:19:15.798Z,61.35
2023-02-27T23:21:42.940Z,61.91
2023-02-27T23:24:17.018Z,61.44
2023-02-27T23:26:48.169Z,61.75
2023-02-27T23:29:15.458Z,60.80
2023-02-27T23:31:42.534Z,61.12
2023-02-27T23:34:09.612Z,60.51
2023-02-27T23:36:38.390Z,60.52
2023-02-27T23:39:06.888Z,60.73
2023-02-27T23:41:34.543Z,60.54
2023-02-27T23:44:01.557Z,60.15
2023-02-27T23:46:30.476Z,60.57
2023-02-27T23:48:59.245Z,60.64
2023-02-27T23:51:30.154Z,60.42
2023-02-27T23:53:57.839Z,60.78
2023-02-27T23:56:28.755Z,60.66
2023-02-27T23:59:02.622Z,60.00
